Time;durP1;ratioP1;P1;durP2;ratioP2;P2;SDS_P1;SDS_P2;PMS_P1;PMS_P2;Temp;Humidity;BMP_temperature;BMP_pressure;BME280_temperature;BME280_humidity;BME280_pressure;Samples;Min_cycle;Max_cycle;Signal;HPM_P1;HPM_P2
2021/11/26 05:37:35;;;;;;;13.52;3.10;;;5.50;99.90;;;;;;6071145;23;20089;-81
2021/11/26 05:40:04;;;;;;;15.32;2.83;;;5.40;99.90;;;;;;6119802;23;20018;-81
2021/11/26 05:42:32;;;;;;;11.35;3.30;;;5.40;99.90;;;;;;6120757;23;20085;-82
2021/11/26 05:44:59;;;;;;;11.80;2.58;;;5.40;99.90;;;;;;6120969;23;20030;-81
2021/11/26 05:47:26;;;;;;;10.32;2.35;;;5.40;99.90;;;;;;6120073;23;20026;-81
2021/11/26 05:49:53;;;;;;;10.32;2.35;;;5.40;99.90;;;;;;6121708;23;20022;-83
2021/11/26 05:52:19;;;;;;;11.80;2.35;;;5.40;99.90;;;;;;6120840;23;20081;-83
2021/11/26 05:54:46;;;;;;;14.43;2.03;;;5.40;99.90;;;;;;6122316;23;20026;-82
2021/11/26 05:57:13;;;;;;;14.32;2.53;;;5.30;99.90;;;;;;6122549;23;20094;-82
2021/11/26 05:59:41;;;;;;;11.00;2.53;;;5.30;99.90;;;;;;6124373;23;20014;-81
2021/11/26 06:02:08;;;;;;;8.27;2.15;;;5.30;99.90;;;;;;6123044;23;20079;-83
2021/11/26 06:04:35;;;;;;;10.38;2.13;;;5.40;99.90;;;;;;6122950;23;20026;-82
2021/11/26 06:07:02;;;;;;;12.73;2.10;;;5.40;99.90;;;;;;6122575;23;20043;-82
2021/11/26 06:09:29;;;;;;;12.95;2.13;;;5.40;99.90;;;;;;6124235;23;20744;-82
2021/11/26 06:11:56;;;;;;;10.68;2.15;;;5.40;99.90;;;;;;6124233;23;20093;-82
2021/11/26 06:14:23;;;;;;;10.50;1.98;;;5.40;99.90;;;;;;6123448;23;20029;-82
2021/11/26 06:16:50;;;;;;;13.15;1.85;;;5.40;99.90;;;;;;6123700;23;20014;-82
2021/11/26 06:19:16;;;;;;;15.77;2.15;;;5.40;99.90;;;;;;6121684;23;20076;-82
2021/11/26 06:21:43;;;;;;;14.93;1.92;;;5.40;99.90;;;;;;6124173;23;20022;-82
2021/11/26 06:24:10;;;;;;;11.57;1.92;;;5.50;99.90;;;;;;6123449;23;20360;-82
2021/11/26 06:26:39;;;;;;;13.25;2.00;;;5.50;99.90;;;;;;6123766;23;20520;-82
2021/11/26 06:29:06;;;;;;;9.23;1.92;;;5.50;99.90;;;;;;6122990;23;20013;-79
2021/11/26 06:31:33;;;;;;;12.50;2.30;;;5.50;99.90;;;;;;6123338;23;20014;-80
2021/11/26 06:34:00;;;;;;;11.80;2.15;;;5.50;99.90;;;;;;6123120;23;20405;-82
2021/11/26 06:36:27;;;;;;;12.38;2.00;;;5.60;99.90;;;;;;6123009;23;20077;-82
2021/11/26 06:38:53;;;;;;;16.60;2.60;;;5.60;99.90;;;;;;6142816;23;20025;-82
2021/11/26 06:41:20;;;;;;;8.88;1.75;;;5.60;99.90;;;;;;6152576;23;20025;-82
2021/11/26 06:43:47;;;;;;;9.80;1.75;;;5.60;99.90;;;;;;6152888;23;20025;-83
2021/11/26 06:46:14;;;;;;;11.48;1.75;;;5.60;99.90;;;;;;6151947;23;20025;-82
2021/11/26 06:48:41;;;;;;;8.63;1.50;;;5.60;99.90;;;;;;6127351;23;20017;-82
2021/11/26 06:51:08;;;;;;;5.80;1.30;;;5.60;99.90;;;;;;6152290;23;20022;-82
2021/11/26 06:53:35;;;;;;;9.50;2.08;;;5.60;99.90;;;;;;6153281;23;20017;-81
2021/11/26 06:56:02;;;;;;;11.13;1.90;;;5.60;99.90;;;;;;6126666;23;20018;-82
2021/11/26 06:58:29;;;;;;;14.27;2.30;;;5.60;99.90;;;;;;6152283;23;20443;-83
2021/11/26 07:00:56;;;;;;;10.02;1.92;;;5.60;99.90;;;;;;6126612;23;20072;-81
2021/11/26 07:03:23;;;;;;;8.77;1.70;;;5.60;99.90;;;;;;6151271;23;20428;-80
2021/11/26 07:05:51;;;;;;;9.35;1.40;;;5.60;99.90;;;;;;6126862;23;20017;-81
2021/11/26 07:08:19;;;;;;;11.45;1.60;;;5.60;99.90;;;;;;6151862;23;20080;-81
2021/11/26 07:10:46;;;;;;;16.23;2.17;;;5.60;99.90;;;;;;6151884;23;20021;-81
2021/11/26 07:13:13;;;;;;;9.82;1.60;;;5.70;99.90;;;;;;6151961;23;20643;-82
2021/11/26 07:15:40;;;;;;;13.27;1.63;;;5.70;99.90;;;;;;6152474;23;20549;-81
2021/11/26 07:18:07;;;;;;;7.80;1.73;;;5.70;99.90;;;;;;6151337;23;20363;-82
2021/11/26 07:20:34;;;;;;;20.27;1.88;;;5.80;99.90;;;;;;6152082;23;20021;-82
2021/11/26 07:23:01;;;;;;;11.32;1.70;;;5.80;99.90;;;;;;6151647;23;20021;-82
2021/11/26 07:25:28;;;;;;;12.60;1.55;;;5.90;99.90;;;;;;6150487;23;20432;-82
2021/11/26 07:27:55;;;;;;;11.30;1.48;;;5.90;99.90;;;;;;6152143;23;20083;-83
2021/11/26 07:30:22;;;;;;;11.40;1.42;;;6.00;99.90;;;;;;6151338;23;20484;-80
2021/11/26 07:32:49;;;;;;;18.77;2.75;;;6.10;99.90;;;;;;6150484;23;20021;-82
2021/11/26 07:35:17;;;;;;;11.27;1.50;;;6.10;99.90;;;;;;6123672;23;20021;-82
2021/11/26 07:37:44;;;;;;;12.07;2.42;;;6.20;99.90;;;;;;6150042;23;20482;-82
2021/11/26 07:40:15;;;;;;;12.75;1.92;;;6.30;99.90;;;;;;6124851;23;20033;-83
2021/11/26 07:42:43;;;;;;;11.02;2.03;;;6.30;99.90;;;;;;6150142;23;20021;-81
2021/11/26 07:45:11;;;;;;;11.60;1.30;;;6.40;99.90;;;;;;6150071;23;20025;-81
2021/11/26 07:47:39;;;;;;;6.72;1.67;;;6.40;99.90;;;;;;6150456;23;20021;-82
2021/11/26 07:50:08;;;;;;;7.03;1.98;;;6.40;99.90;;;;;;6123582;23;20444;-81
2021/11/26 07:52:36;;;;;;;11.95;1.85;;;6.50;99.90;;;;;;6150043;23;20426;-82
2021/11/26 07:55:05;;;;;;;9.80;1.23;;;6.50;99.90;;;;;;6150375;23;20076;-81
2021/11/26 07:57:32;;;;;;;10.57;1.60;;;6.60;99.90;;;;;;6149895;23;20068;-82
2021/11/26 07:59:59;;;;;;;8.27;1.40;;;6.60;99.90;;;;;;6124396;23;20021;-81
2021/11/26 08:02:26;;;;;;;9.25;1.45;;;6.60;99.90;;;;;;6149928;23;20021;-81
2021/11/26 08:04:53;;;;;;;5.28;1.15;;;6.70;99.90;;;;;;6124217;23;20076;-80
2021/11/26 08:07:20;;;;;;;7.22;1.20;;;6.70;99.90;;;;;;6150326;23;20034;-82
2021/11/26 08:09:47;;;;;;;7.25;1.40;;;6.80;99.90;;;;;;6151220;23;20021;-81
2021/11/26 08:12:17;;;;;;;12.10;1.33;;;6.80;99.90;;;;;;6149860;23;20029;-81
2021/11/26 08:14:44;;;;;;;14.45;1.80;;;6.80;99.90;;;;;;6150848;23;20021;-82
2021/11/26 08:17:11;;;;;;;7.57;1.25;;;6.90;99.90;;;;;;6124458;23;20025;-82
2021/11/26 08:19:38;;;;;;;10.82;1.75;;;6.90;99.90;;;;;;6151347;23;20566;-83
2021/11/26 08:22:05;;;;;;;12.10;1.63;;;6.90;99.90;;;;;;6125204;23;20021;-84
2021/11/26 08:24:32;;;;;;;17.10;1.92;;;7.00;99.90;;;;;;6151415;23;20482;-83
2021/11/26 08:26:59;;;;;;;7.70;1.40;;;7.00;99.90;;;;;;6150954;23;20021;-80
2021/11/26 08:29:28;;;;;;;14.40;1.52;;;7.10;99.90;;;;;;6150262;23;20453;-80
2021/11/26 08:31:55;;;;;;;13.32;1.17;;;7.20;99.90;;;;;;6125386;23;20021;-80
2021/11/26 08:34:22;;;;;;;16.48;1.50;;;7.20;99.90;;;;;;6149973;23;20033;-82
2021/11/26 08:36:49;;;;;;;11.95;1.40;;;7.30;99.90;;;;;;6150999;23;20076;-80
2021/11/26 08:39:16;;;;;;;13.18;1.88;;;7.30;99.90;;;;;;6149768;23;20025;-83
2021/11/26 08:41:43;;;;;;;11.32;1.60;;;7.30;99.90;;;;;;6124958;23;20032;-81
2021/11/26 08:44:10;;;;;;;13.88;1.40;;;7.30;99.90;;;;;;6150082;23;20021;-82
2021/11/26 08:46:37;;;;;;;11.68;1.55;;;7.40;99.90;;;;;;6151480;23;20017;-80
2021/11/26 08:49:04;;;;;;;10.70;1.48;;;7.40;99.90;;;;;;6150071;23;20483;-80
2021/11/26 08:51:38;;;;;;;15.73;1.83;;;7.50;99.90;;;;;;6150740;23;20476;-84
2021/11/26 08:54:05;;;;;;;19.98;2.25;;;7.50;99.90;;;;;;6151129;23;20018;-83
2021/11/26 08:56:32;;;;;;;14.32;1.75;;;7.60;99.90;;;;;;6151068;23;20060;-85
2021/11/26 08:59:01;;;;;;;15.38;1.63;;;7.60;99.90;;;;;;6151172;23;20013;-82
2021/11/26 09:01:31;;;;;;;12.70;1.52;;;7.60;99.90;;;;;;6150311;23;20403;-82
2021/11/26 09:03:59;;;;;;;10.80;1.58;;;7.60;99.90;;;;;;6151040;23;20021;-81
2021/11/26 09:06:26;;;;;;;15.10;2.13;;;7.60;99.90;;;;;;6149936;23;20021;-81
2021/11/26 09:08:53;;;;;;;11.13;1.35;;;7.60;99.90;;;;;;6151117;23;20072;-81
2021/11/26 09:11:20;;;;;;;13.73;2.00;;;7.70;99.90;;;;;;6149249;23;20092;-81
2021/11/26 09:13:47;;;;;;;9.93;1.63;;;7.70;99.90;;;;;;6150575;23;20025;-81
2021/11/26 09:16:14;;;;;;;10.43;1.48;;;7.80;99.90;;;;;;6149422;23;20021;-80
2021/11/26 09:18:41;;;;;;;8.00;1.38;;;7.80;99.90;;;;;;6150583;23;20028;-81
2021/11/26 09:21:08;;;;;;;11.30;1.70;;;7.90;99.90;;;;;;6149684;23;20021;-81
2021/11/26 09:23:35;;;;;;;14.20;1.50;;;7.90;99.90;;;;;;6124512;23;20407;-80
2021/11/26 09:26:03;;;;;;;9.65;1.15;;;8.00;99.90;;;;;;6150886;23;20411;-81
2021/11/26 09:28:29;;;;;;;14.15;2.20;;;8.00;99.90;;;;;;6125201;23;20014;-82
2021/11/26 09:30:57;;;;;;;17.75;2.28;;;8.10;99.90;;;;;;6152572;23;20087;-83
2021/11/26 09:33:24;;;;;;;16.98;2.95;;;8.10;99.90;;;;;;6152027;23;20056;-83
2021/11/26 09:35:57;;;;;;;11.27;1.73;;;8.20;99.90;;;;;;6152723;23;20081;-83
2021/11/26 09:38:24;;;;;;;12.15;1.50;;;8.20;99.90;;;;;;6125519;23;20484;-81
2021/11/26 09:40:54;;;;;;;16.77;1.90;;;8.20;99.90;;;;;;6152178;23;20097;-81
2021/11/26 09:43:21;;;;;;;16.30;2.65;;;8.30;99.90;;;;;;6151821;23;20025;-82
2021/11/26 09:45:48;;;;;;;17.98;2.60;;;8.30;99.90;;;;;;6152822;23;20408;-82
2021/11/26 09:48:15;;;;;;;18.90;2.05;;;8.40;99.90;;;;;;6151211;23;20025;-81
2021/11/26 09:50:42;;;;;;;17.98;2.10;;;8.50;99.90;;;;;;6152559;23;20495;-82
2021/11/26 09:53:23;;;;;;;16.08;2.55;;;8.60;99.90;;;;;;6125787;23;20032;-82
2021/11/26 09:55:51;;;;;;;15.52;2.60;;;8.60;99.90;;;;;;6152547;23;20017;-81
2021/11/26 09:58:20;;;;;;;22.65;2.58;;;8.70;99.90;;;;;;6151561;23;20423;-82
2021/11/26 10:00:48;;;;;;;17.60;2.38;;;8.80;99.90;;;;;;6126430;23;20017;-82
2021/11/26 10:03:16;;;;;;;19.80;2.17;;;8.80;99.90;;;;;;6151470;23;20063;-81
2021/11/26 10:05:45;;;;;;;18.08;3.35;;;8.90;99.90;;;;;;6152765;23;20021;-80
2021/11/26 10:08:13;;;;;;;19.08;2.05;;;8.90;99.90;;;;;;6151056;23;20080;-80
2021/11/26 10:10:43;;;;;;;27.33;3.33;;;9.00;99.90;;;;;;6152092;23;20352;-82
2021/11/26 10:13:13;;;;;;;17.60;2.50;;;9.10;99.90;;;;;;6151579;23;20025;-80
2021/11/26 10:15:42;;;;;;;16.88;2.65;;;9.20;99.90;;;;;;6152489;23;20026;-81
2021/11/26 10:18:16;;;;;;;20.80;2.75;;;9.30;99.90;;;;;;6151314;23;20025;-81
2021/11/26 10:21:01;;;;;;;18.27;2.65;;;9.30;99.90;;;;;;6151946;23;20018;-81
2021/11/26 10:23:32;;;;;;;18.65;1.92;;;9.40;99.90;;;;;;6151239;23;20030;-81
2021/11/26 10:26:13;;;;;;;16.40;2.55;;;9.40;99.90;;;;;;6126210;23;20427;-83
2021/11/26 10:28:44;;;;;;;19.90;2.17;;;9.40;99.90;;;;;;6151654;23;20017;-82
2021/11/26 10:31:43;;;;;;;18.83;2.20;;;9.50;99.90;;;;;;6151442;23;20025;-82
2021/11/26 10:34:25;;;;;;;19.67;2.20;;;9.60;99.90;;;;;;6061188;23;20090;-81
2021/11/26 10:36:53;;;;;;;21.20;2.65;;;9.70;99.90;;;;;;6061277;23;20027;-81
2021/11/26 10:39:22;;;;;;;15.43;2.10;;;9.80;99.90;;;;;;6060842;23;20079;-82
2021/11/26 10:41:58;;;;;;;11.82;2.33;;;9.90;99.90;;;;;;6061992;23;20670;-82
2021/11/26 10:44:52;;;;;;;14.90;2.88;;;9.90;99.90;;;;;;6061452;23;20026;-82
2021/11/26 10:47:43;;;;;;;20.30;3.08;;;9.90;99.90;;;;;;6061461;23;20026;-83
2021/11/26 11:01:13;;;;;;;31.45;3.90;;;10.10;99.90;;;;;;6055049;23;20034;-83
2021/11/26 11:03:42;;;;;;;20.65;3.28;;;10.20;99.90;;;;;;6061428;23;20581;-81
2021/11/26 11:06:24;;;;;;;21.98;3.38;;;10.20;99.90;;;;;;6060806;23;20092;-83
2021/11/26 11:09:02;;;;;;;21.40;3.13;;;10.20;99.90;;;;;;6045655;23;20019;-82
2021/11/26 11:11:29;;;;;;;19.98;2.55;;;10.20;99.90;;;;;;6151458;23;20468;-83
2021/11/26 11:13:58;;;;;;;22.13;3.97;;;10.20;99.90;;;;;;6151634;23;20088;-82
2021/11/26 11:16:30;;;;;;;20.52;3.95;;;10.10;99.90;;;;;;6151351;23;20022;-83
2021/11/26 11:18:57;;;;;;;24.92;2.67;;;10.20;99.90;;;;;;6125465;23;20013;-82
2021/11/26 11:21:25;;;;;;;21.40;3.42;;;10.10;99.90;;;;;;6150643;23;20033;-82
2021/11/26 11:23:52;;;;;;;27.95;3.72;;;10.10;99.90;;;;;;6151544;23;20471;-81
2021/11/26 11:26:18;;;;;;;26.45;3.92;;;10.10;99.90;;;;;;6125044;23;20088;-81
2021/11/26 11:28:47;;;;;;;25.83;3.13;;;10.20;99.90;;;;;;6151314;23;20022;-81
2021/11/26 11:31:14;;;;;;;34.63;3.72;;;10.20;99.90;;;;;;6150793;23;20030;-80
2021/11/26 11:33:41;;;;;;;35.90;3.75;;;10.30;99.90;;;;;;6125598;23;20550;-81
2021/11/26 11:36:08;;;;;;;28.63;3.72;;;10.40;99.90;;;;;;6150363;23;20021;-82
2021/11/26 11:38:35;;;;;;;33.10;3.97;;;10.50;99.90;;;;;;6150813;23;20412;-82
2021/11/26 11:41:06;;;;;;;31.92;5.50;;;10.50;99.90;;;;;;6151154;23;20434;-83
2021/11/26 11:43:53;;;;;;;31.50;4.30;;;10.60;99.90;;;;;;6150382;23;20055;-82
2021/11/26 11:46:20;;;;;;;36.45;4.82;;;10.70;99.90;;;;;;6150422;23;20145;-79
2021/11/26 11:48:51;;;;;;;28.13;4.30;;;10.80;99.90;;;;;;6125462;23;20025;-82
2021/11/26 11:51:32;;;;;;;31.77;4.00;;;10.80;99.90;;;;;;6148380;23;20075;-83
2021/11/26 11:54:07;;;;;;;35.20;4.03;;;10.90;99.90;;;;;;6122475;23;20032;-81
2021/11/26 11:56:44;;;;;;;39.63;5.60;;;10.90;99.90;;;;;;6147383;23;20025;-82
2021/11/26 11:59:23;;;;;;;27.20;4.35;;;11.00;99.90;;;;;;6120141;23;20017;-81
2021/11/26 12:01:50;;;;;;;33.15;4.25;;;11.00;99.90;;;;;;6121344;23;20032;-82
2021/11/26 12:04:20;;;;;;;25.77;3.92;;;11.00;99.90;;;;;;6119824;23;20026;-81
2021/11/26 12:06:49;;;;;;;35.47;4.68;;;11.10;99.90;;;;;;6146930;23;20017;-82
2021/11/26 12:09:22;;;;;;;29.02;4.28;;;11.10;99.90;;;;;;6120510;23;20103;-81
2021/11/26 12:11:55;;;;;;;38.88;4.20;;;11.20;99.90;;;;;;6147212;23;20456;-83
2021/11/26 12:14:23;;;;;;;24.98;3.95;;;11.20;99.90;;;;;;6146601;23;20024;-82
2021/11/26 12:17:05;;;;;;;35.88;4.07;;;11.30;99.90;;;;;;6146253;23;20029;-82
2021/11/26 12:19:33;;;;;;;21.25;3.83;;;11.30;99.90;;;;;;6146738;23;20022;-81
2021/11/26 12:22:00;;;;;;;17.65;3.05;;;11.30;99.90;;;;;;6125867;23;20076;-81
2021/11/26 12:24:38;;;;;;;24.73;4.28;;;11.20;99.90;;;;;;6150274;23;20017;-81
2021/11/26 12:27:07;;;;;;;20.73;3.58;;;11.20;99.90;;;;;;6149978;23;20029;-81
2021/11/26 12:29:40;;;;;;;25.85;4.35;;;11.20;99.90;;;;;;6125221;23;20494;-81
2021/11/26 12:32:11;;;;;;;29.73;3.47;;;11.20;99.90;;;;;;6149787;23;20376;-81
2021/11/26 12:34:41;;;;;;;20.63;3.50;;;11.20;99.90;;;;;;6150871;23;20397;-81
2021/11/26 12:37:22;;;;;;;26.33;3.75;;;11.30;99.90;;;;;;6149840;23;20033;-81
2021/11/26 12:39:51;;;;;;;21.52;3.38;;;11.50;99.90;;;;;;6150692;23;20523;-81
2021/11/26 12:42:18;;;;;;;;;;;11.60;99.90;;;;;;6150163;23;20022;-81
2021/11/26 12:45:06;;;;;;;26.05;3.28;;;11.60;99.90;;;;;;6149166;23;19920;-81
2021/11/26 12:47:56;;;;;;;21.00;3.30;;;11.70;99.90;;;;;;6149858;23;20025;-81
2021/11/26 12:53:16;;;;;;;16.02;3.30;;;11.70;99.90;;;;;;6150131;23;20122;-81
2021/11/26 12:55:56;;;;;;;24.83;2.90;;;11.70;99.90;;;;;;6124955;23;20071;-82
2021/11/26 12:58:25;;;;;;;16.63;3.47;;;11.60;99.90;;;;;;6149638;23;20093;-81
2021/11/26 13:00:58;;;;;;;20.25;3.10;;;11.60;99.90;;;;;;6150760;23;20014;-81
2021/11/26 13:03:27;;;;;;;24.80;3.65;;;11.50;99.90;;;;;;6150426;23;20017;-83
2021/11/26 13:05:55;;;;;;;;;;;11.60;99.90;;;;;;6153553;23;20068;-80
2021/11/26 13:08:22;;;;;;;18.07;3.13;;;11.60;99.90;;;;;;6152056;23;19920;-81
2021/11/26 13:10:50;;;;;;;29.45;4.18;;;11.50;99.90;;;;;;6152989;23;20053;-81
2021/11/26 13:13:21;;;;;;;23.27;2.97;;;11.50;99.90;;;;;;6151515;23;20026;-80
2021/11/26 13:15:49;;;;;;;25.55;4.07;;;11.50;99.90;;;;;;6126715;23;20084;-81
2021/11/26 13:18:19;;;;;;;18.92;2.53;;;11.50;99.90;;;;;;6151556;23;20243;-80
2021/11/26 13:20:47;;;;;;;20.83;3.17;;;11.50;99.90;;;;;;6153053;23;20022;-82
2021/11/26 13:23:21;;;;;;;13.85;2.53;;;11.60;99.90;;;;;;6151384;23;20029;-81
2021/11/26 13:25:54;;;;;;;18.15;3.15;;;11.60;99.90;;;;;;6152690;23;20022;-82
2021/11/26 13:28:23;;;;;;;18.20;3.17;;;11.60;99.90;;;;;;6152034;23;20025;-82
2021/11/26 13:31:13;;;;;;;22.70;3.22;;;11.60;99.90;;;;;;6151567;23;20045;-82
2021/11/26 13:33:46;;;;;;;24.98;3.30;;;11.50;99.90;;;;;;6152468;23;20021;-81
2021/11/26 13:36:17;;;;;;;26.25;3.63;;;11.50;99.90;;;;;;6151193;23;20029;-83
2021/11/26 13:38:56;;;;;;;18.45;3.13;;;11.50;99.90;;;;;;6152660;23;20526;-82
2021/11/26 13:41:30;;;;;;;26.75;3.35;;;11.50;99.90;;;;;;6151290;23;20073;-81
2021/11/26 13:44:10;;;;;;;21.00;3.35;;;11.60;99.90;;;;;;6152373;23;20064;-81
2021/11/26 13:46:42;;;;;;;17.05;2.88;;;11.50;99.90;;;;;;6151413;23;20072;-81
2021/11/26 13:49:12;;;;;;;22.23;3.55;;;11.50;99.90;;;;;;6151165;23;20080;-82
2021/11/26 13:51:55;;;;;;;21.80;3.03;;;11.40;99.90;;;;;;6152218;23;20022;-81
2021/11/26 13:54:44;;;;;;;17.23;3.22;;;11.40;99.90;;;;;;6152006;23;20409;-81
2021/11/26 13:57:26;;;;;;;16.95;2.63;;;11.40;99.90;;;;;;6151352;23;20053;-80
2021/11/26 14:00:09;;;;;;;14.55;2.42;;;11.50;99.90;;;;;;6152307;23;20021;-82
2021/11/26 14:02:52;;;;;;;19.15;2.70;;;11.50;99.90;;;;;;6151975;23;20515;-82
2021/11/26 14:05:46;;;;;;;26.83;2.95;;;11.50;99.90;;;;;;6151436;23;20076;-80
2021/11/26 14:08:14;;;;;;;20.98;3.00;;;11.50;99.90;;;;;;6147880;23;20020;-82
2021/11/26 14:10:54;;;;;;;13.35;2.30;;;11.50;99.90;;;;;;6152072;23;20025;-82
2021/11/26 14:13:22;;;;;;;19.23;3.08;;;11.40;99.90;;;;;;6151238;23;20028;-81
2021/11/26 14:16:04;;;;;;;12.82;2.95;;;11.50;99.90;;;;;;6151786;23;20018;-81
2021/11/26 14:18:31;;;;;;;20.83;3.13;;;11.40;99.90;;;;;;6152085;23;20048;-82
2021/11/26 14:21:05;;;;;;;16.55;3.17;;;11.30;99.90;;;;;;6126825;23;20021;-82
2021/11/26 14:23:32;;;;;;;9.70;1.63;;;11.20;99.90;;;;;;6152200;23;20356;-84
2021/11/26 14:26:10;;;;;;;6.75;1.40;;;11.00;99.90;;;;;;6152392;23;20025;-83
2021/11/26 14:28:39;;;;;;;7.93;1.10;;;10.70;99.90;;;;;;6151875;23;20605;-82
2021/11/26 14:31:09;;;;;;;6.30;1.20;;;10.60;99.90;;;;;;6151664;23;20078;-82
2021/11/26 14:33:37;;;;;;;8.27;1.00;;;10.50;99.90;;;;;;6152450;23;20601;-83
2021/11/26 14:36:12;;;;;;;9.98;1.20;;;10.40;99.90;;;;;;6152054;23;20014;-82
2021/11/26 14:38:47;;;;;;;7.53;1.38;;;10.30;99.90;;;;;;6126206;23;20017;-82
2021/11/26 14:41:17;;;;;;;6.40;1.23;;;10.30;99.90;;;;;;6151387;23;20538;-82
2021/11/26 14:43:45;;;;;;;6.75;1.17;;;10.20;99.90;;;;;;6152607;23;20017;-81
2021/11/26 14:46:14;;;;;;;8.23;2.15;;;10.20;99.90;;;;;;6125958;23;20443;-82
2021/11/26 14:48:50;;;;;;;10.77;1.50;;;10.20;99.90;;;;;;6152715;23;20052;-83
2021/11/26 14:51:25;;;;;;;13.25;1.75;;;10.20;99.90;;;;;;6151782;23;20025;-82
2021/11/26 14:53:59;;;;;;;14.23;2.10;;;10.20;99.90;;;;;;6152151;23;20021;-82
2021/11/26 14:56:27;;;;;;;15.88;1.65;;;10.20;99.90;;;;;;6151668;23;20021;-83
2021/11/26 14:58:55;;;;;;;15.55;2.17;;;10.20;99.90;;;;;;6151679;23;20072;-81
2021/11/26 15:01:26;;;;;;;19.65;1.92;;;10.10;99.90;;;;;;6150862;23;20029;-82
2021/11/26 15:03:55;;;;;;;15.50;1.85;;;10.10;99.90;;;;;;6152443;23;20041;-81
2021/11/26 15:06:27;;;;;;;17.20;2.15;;;10.10;99.90;;;;;;6151164;23;20460;-81
2021/11/26 15:08:54;;;;;;;20.23;2.78;;;10.20;99.90;;;;;;6151437;23;20029;-83
2021/11/26 15:11:23;;;;;;;15.18;2.10;;;10.20;99.90;;;;;;6150838;23;20033;-82
2021/11/26 15:13:50;;;;;;;15.30;1.95;;;10.20;99.90;;;;;;6151703;23;20036;-83
2021/11/26 15:16:17;;;;;;;21.58;2.25;;;10.20;99.90;;;;;;6150990;23;20022;-83
2021/11/26 15:18:45;;;;;;;23.17;3.80;;;10.20;99.90;;;;;;6152392;23;20017;-83
2021/11/26 15:21:12;;;;;;;14.60;2.20;;;10.10;99.90;;;;;;6151040;23;20059;-84
2021/11/26 15:23:40;;;;;;;12.70;1.77;;;10.10;99.90;;;;;;6153162;23;20413;-84
2021/11/26 15:26:08;;;;;;;8.77;1.73;;;10.10;99.90;;;;;;6150562;23;20018;-82
2021/11/26 15:28:35;;;;;;;15.27;2.05;;;10.00;99.90;;;;;;6151985;23;20087;-82
2021/11/26 15:31:02;;;;;;;14.48;1.50;;;10.00;99.90;;;;;;6151740;23;20097;-81
2021/11/26 15:33:31;;;;;;;14.73;1.65;;;9.90;99.90;;;;;;6151217;23;20436;-82
2021/11/26 15:35:58;;;;;;;10.15;1.48;;;9.90;99.90;;;;;;6125464;23;20117;-82
2021/11/26 15:38:29;;;;;;;10.48;2.15;;;9.90;99.90;;;;;;6151291;23;20120;-83
2021/11/26 15:40:56;;;;;;;11.00;1.63;;;9.90;99.90;;;;;;6125562;23;20013;-81
2021/11/26 15:43:24;;;;;;;9.63;1.42;;;9.90;99.90;;;;;;6149911;23;20116;-83
2021/11/26 15:45:51;;;;;;;15.25;1.75;;;9.90;99.90;;;;;;6151379;23;20021;-82
2021/11/26 15:48:18;;;;;;;10.38;1.95;;;9.90;99.90;;;;;;6150642;23;20021;-82
2021/11/26 15:50:52;;;;;;;18.20;1.80;;;9.80;99.90;;;;;;6151108;23;20017;-81
2021/11/26 15:53:28;;;;;;;14.98;2.17;;;9.80;99.90;;;;;;6150468;23;20025;-82
2021/11/26 15:55:55;;;;;;;13.73;2.90;;;9.80;99.90;;;;;;6151158;23;20592;-81
2021/11/26 15:58:22;;;;;;;11.68;1.83;;;9.70;99.90;;;;;;6150650;23;20033;-83
2021/11/26 16:00:50;;;;;;;17.38;2.40;;;9.70;99.90;;;;;;6151251;23;20021;-82
2021/11/26 16:03:17;;;;;;;24.08;2.45;;;9.70;99.90;;;;;;6150249;23;20052;-81
2021/11/26 16:05:45;;;;;;;20.40;2.55;;;9.70;99.90;;;;;;6151241;23;20128;-80
2021/11/26 16:08:13;;;;;;;18.30;2.85;;;9.70;99.90;;;;;;6150696;23;20025;-83
2021/11/26 16:10:55;;;;;;;23.55;3.58;;;9.70;99.90;;;;;;6151219;23;20116;-84
2021/11/26 16:13:24;;;;;;;21.27;2.95;;;9.60;99.90;;;;;;6151366;23;20021;-82
2021/11/26 16:15:51;;;;;;;17.58;3.15;;;9.60;99.90;;;;;;6152274;23;20338;-85
2021/11/26 16:18:18;;;;;;;25.50;3.00;;;9.50;99.90;;;;;;6149913;23;20018;-83
2021/11/26 16:20:45;;;;;;;19.00;3.00;;;9.40;99.90;;;;;;6151400;23;20021;-82
2021/11/26 16:23:12;;;;;;;23.83;3.85;;;9.40;99.90;;;;;;6125333;23;20029;-83
2021/11/26 16:25:39;;;;;;;24.75;3.13;;;9.40;99.90;;;;;;6150739;23;20029;-82
2021/11/26 16:28:06;;;;;;;20.85;2.70;;;9.40;99.90;;;;;;6150154;23;20029;-82
2021/11/26 16:30:35;;;;;;;21.27;2.88;;;9.30;99.90;;;;;;6150795;23;20531;-81
2021/11/26 16:35:41;;;;;;;19.65;2.70;;;9.20;99.90;;;;;;6150270;23;20014;-83
2021/11/26 16:38:09;;;;;;;14.63;1.90;;;9.20;99.90;;;;;;6123402;23;20076;-82
2021/11/26 16:40:36;;;;;;;21.90;2.83;;;9.20;99.90;;;;;;6149277;23;20013;-82
2021/11/26 16:43:06;;;;;;;19.58;2.33;;;9.20;99.90;;;;;;6149471;23;20026;-81
2021/11/26 16:45:33;;;;;;;15.45;3.15;;;9.10;99.90;;;;;;6149362;23;20087;-81
2021/11/26 16:48:02;;;;;;;11.88;2.30;;;9.10;99.90;;;;;;6124641;23;20092;-83
2021/11/26 16:50:31;;;;;;;10.65;2.28;;;9.10;99.90;;;;;;6124000;23;20107;-82
2021/11/26 16:52:58;;;;;;;11.85;2.10;;;9.10;99.90;;;;;;6123583;23;20018;-82
2021/11/26 16:55:25;;;;;;;9.52;1.83;;;9.00;99.90;;;;;;6148797;23;23010;-83
2021/11/26 16:57:52;;;;;;;12.05;2.03;;;9.00;99.90;;;;;;6149766;23;20076;-82
2021/11/26 17:00:22;;;;;;;20.33;2.33;;;9.00;99.90;;;;;;6149466;23;20029;-82
2021/11/26 17:02:50;;;;;;;16.50;2.33;;;9.00;99.90;;;;;;6149577;23;20032;-83
2021/11/26 17:05:17;;;;;;;16.67;2.55;;;9.00;99.90;;;;;;6149453;23;20029;-83
2021/11/26 17:07:44;;;;;;;12.93;2.28;;;9.00;99.90;;;;;;6149914;23;20072;-82
2021/11/26 17:10:11;;;;;;;16.35;2.90;;;9.00;99.90;;;;;;6148925;23;20032;-83
2021/11/26 17:12:38;;;;;;;16.10;2.85;;;9.00;99.90;;;;;;6149955;23;20126;-82
2021/11/26 17:15:05;;;;;;;20.35;2.83;;;9.00;99.90;;;;;;6150088;23;20065;-84
2021/11/26 17:17:33;;;;;;;21.98;2.88;;;9.00;99.90;;;;;;6149309;23;20014;-83
2021/11/26 17:20:01;;;;;;;18.58;2.50;;;9.00;99.90;;;;;;6150099;23;20032;-83
2021/11/26 17:22:28;;;;;;;17.80;2.42;;;9.00;99.90;;;;;;6149569;23;20456;-82
2021/11/26 17:24:54;;;;;;;16.23;2.70;;;9.00;99.90;;;;;;6142878;23;20030;-83
2021/11/26 17:27:21;;;;;;;10.60;1.80;;;9.00;99.90;;;;;;6148453;23;20088;-81
2021/11/26 17:29:49;;;;;;;16.08;2.10;;;9.00;99.90;;;;;;6148698;23;20018;-79
2021/11/26 17:32:16;;;;;;;11.93;1.92;;;8.90;99.90;;;;;;6148188;23;20072;-79
2021/11/26 17:34:44;;;;;;;13.15;2.45;;;8.90;99.90;;;;;;6148732;23;20641;-82
2021/11/26 17:37:11;;;;;;;9.90;2.13;;;8.90;99.90;;;;;;6146343;23;20021;-80
2021/11/26 17:39:40;;;;;;;17.13;2.10;;;8.90;99.90;;;;;;6148086;23;20555;-81
2021/11/26 17:42:07;;;;;;;15.48;2.47;;;8.80;99.90;;;;;;6148599;23;20411;-79
2021/11/26 17:44:35;;;;;;;16.52;2.15;;;8.80;99.90;;;;;;6120932;23;20018;-79
2021/11/26 17:47:02;;;;;;;14.27;2.05;;;8.80;99.90;;;;;;6122351;23;20057;-80
2021/11/26 17:49:29;;;;;;;11.77;1.85;;;8.80;99.90;;;;;;6147987;23;20019;-81
2021/11/26 17:51:59;;;;;;;19.88;2.67;;;8.90;99.90;;;;;;6149601;23;20084;-82
2021/11/26 17:54:29;;;;;;;11.93;2.45;;;8.90;99.90;;;;;;6148702;23;20329;-81
2021/11/26 17:56:57;;;;;;;17.55;2.20;;;8.90;99.90;;;;;;6149333;23;20026;-82
2021/11/26 17:59:24;;;;;;;14.73;2.45;;;8.90;99.90;;;;;;6149181;23;20031;-81
2021/11/26 18:01:51;;;;;;;16.73;2.17;;;8.90;99.90;;;;;;6124372;23;20373;-82
2021/11/26 18:04:25;;;;;;;21.63;2.28;;;8.90;99.90;;;;;;6148968;23;20052;-82
2021/11/26 18:07:01;;;;;;;16.20;2.17;;;8.90;99.90;;;;;;6151033;23;20021;-81
2021/11/26 18:09:32;;;;;;;12.52;2.60;;;8.90;99.90;;;;;;6150478;23;20080;-80
2021/11/26 18:12:13;;;;;;;15.32;2.10;;;8.90;99.90;;;;;;6150858;23;20476;-82
2021/11/26 18:14:41;;;;;;;16.10;2.33;;;8.80;99.90;;;;;;6124177;23;20045;-81
2021/11/26 18:17:08;;;;;;;13.68;2.17;;;8.80;99.90;;;;;;6149683;23;20034;-80
2021/11/26 18:19:35;;;;;;;18.60;2.22;;;8.80;99.90;;;;;;6150736;23;20021;-80
2021/11/26 18:22:04;;;;;;;21.35;2.33;;;8.70;99.90;;;;;;6150281;23;20033;-77
2021/11/26 18:24:32;;;;;;;10.25;1.80;;;8.70;99.90;;;;;;6149168;23;20017;-79
2021/11/26 18:27:00;;;;;;;23.10;4.07;;;8.70;99.90;;;;;;6148445;23;20067;-78
2021/11/26 18:29:27;;;;;;;21.73;3.08;;;8.70;99.90;;;;;;6147614;23;20018;-79
2021/11/26 18:31:54;;;;;;;20.50;2.63;;;8.70;99.90;;;;;;6148538;23;20076;-78
2021/11/26 18:34:21;;;;;;;21.40;2.75;;;8.60;99.90;;;;;;6148570;23;20028;-78
2021/11/26 18:36:48;;;;;;;19.90;2.78;;;8.60;99.90;;;;;;6149884;23;20021;-79
2021/11/26 18:39:16;;;;;;;18.13;3.05;;;8.60;99.90;;;;;;6148415;23;20463;-80
2021/11/26 18:41:46;;;;;;;16.75;3.38;;;8.60;99.90;;;;;;6150069;23;20021;-80
2021/11/26 18:44:24;;;;;;;28.08;4.20;;;8.60;99.90;;;;;;6149164;23;20033;-78
2021/11/26 18:46:52;;;;;;;27.38;4.10;;;8.60;99.90;;;;;;6150051;23;20025;-80
2021/11/26 18:49:21;;;;;;;19.50;3.42;;;8.60;99.90;;;;;;6149256;23;20080;-79
2021/11/26 18:51:49;;;;;;;26.27;4.00;;;8.50;99.90;;;;;;6149684;23;20080;-79